createdAt,value
2016-07-07T17:53:14.860Z,1012.26
2016-07-07T17:54:14.849Z,1012.25
2016-07-07T17:55:14.827Z,1012.23
2016-07-07T17:56:14.808Z,1012.2
2016-07-07T17:57:14.798Z,1012.26
2016-07-07T17:58:14.795Z,1012.26
2016-07-07T17:59:14.780Z,1012.24
2016-07-07T18:00:14.771Z,1012.29
2016-07-07T18:01:14.783Z,1012.26
2016-07-07T18:02:14.746Z,1012.26
2016-07-07T18:03:14.730Z,1012.21
2016-07-07T18:04:14.721Z,1012.22
2016-07-07T18:05:14.718Z,1012.21
2016-07-07T18:06:14.701Z,1012.17
2016-07-07T18:07:14.735Z,1012.18
2016-07-07T18:08:14.681Z,1012.15
2016-07-07T18:09:14.671Z,1012.15
2016-07-07T18:10:14.658Z,1012.16
2016-07-07T18:11:14.652Z,1012.15
2016-07-07T18:12:14.639Z,1012.12
2016-07-07T18:13:14.630Z,1012.18
2016-07-07T18:14:14.620Z,1012.12
2016-07-07T18:15:14.609Z,1012.1
2016-07-07T18:16:14.600Z,1012.08
2016-07-07T18:17:14.596Z,1012.09
2016-07-07T18:18:14.578Z,1012.08
2016-07-07T18:19:14.578Z,1012.1
2016-07-07T18:20:14.568Z,1012.08
2016-07-07T18:21:14.561Z,1012.08
2016-07-07T18:22:14.551Z,1012.03
2016-07-07T18:23:14.537Z,1012.07
2016-07-07T18:24:14.530Z,1012.09
2016-07-07T18:25:14.518Z,1012.09
2016-07-07T18:26:14.511Z,1012.12
2016-07-07T18:27:14.500Z,1012.15
2016-07-07T18:28:14.486Z,1012.13
2016-07-07T18:29:14.485Z,1012.17
2016-07-07T18:30:14.480Z,1012.15
2016-07-07T18:31:14.469Z,1012.16
2016-07-07T18:32:14.458Z,1012.14
2016-07-07T18:33:14.447Z,1012.16
2016-07-07T18:34:14.440Z,1012.14
2016-07-07T18:35:14.425Z,1012.15
2016-07-07T18:36:14.418Z,1012.14
2016-07-07T18:37:14.411Z,1012.13
2016-07-07T18:38:14.396Z,1012.15
2016-07-07T18:39:14.397Z,1012.18
2016-07-07T18:40:14.391Z,1012.19
2016-07-07T18:41:14.375Z,1012.23
2016-07-07T18:42:14.363Z,1012.22
2016-07-07T18:43:14.363Z,1012.24
2016-07-07T18:44:14.347Z,1012.27
2016-07-07T18:45:14.339Z,1012.28
2016-07-07T18:46:14.333Z,1012.32
2016-07-07T18:47:14.321Z,1012.29
2016-07-07T18:48:14.313Z,1012.28
2016-07-07T18:49:14.305Z,1012.25
2016-07-07T18:50:14.300Z,1012.23
2016-07-07T18:51:14.288Z,1012.26
2016-07-07T18:52:14.280Z,1012.21
2016-07-07T18:53:14.270Z,1012.21
2016-07-07T18:54:14.266Z,1012.23
2016-07-07T18:55:14.256Z,1012.25
2016-07-07T18:56:14.243Z,1012.21
2016-07-07T18:57:14.238Z,1012.19
2016-07-07T18:58:14.229Z,1012.2
2016-07-07T18:59:14.219Z,1012.19
2016-07-07T19:00:14.208Z,1012.18
2016-07-07T19:01:14.196Z,1012.17
2016-07-07T19:02:14.189Z,1012.2
2016-07-07T19:03:14.180Z,1012.15
2016-07-07T19:04:14.167Z,1012.15
2016-07-07T19:05:14.167Z,1012.16
2016-07-07T19:06:14.151Z,1012.21
2016-07-07T19:07:14.138Z,1012.25
2016-07-07T19:08:14.139Z,1012.27
2016-07-07T19:09:14.130Z,1012.29
2016-07-07T19:10:14.113Z,1012.29
2016-07-07T19:11:14.110Z,1012.29
2016-07-07T19:12:14.096Z,1012.27
2016-07-07T19:13:14.088Z,1012.27
2016-07-07T19:14:14.077Z,1012.26
2016-07-07T19:15:14.071Z,1012.22
2016-07-07T19:16:14.058Z,1012.23
2016-07-07T19:17:14.049Z,1012.22
2016-07-07T19:18:14.041Z,1012.21
2016-07-07T19:19:14.036Z,1012.21
2016-07-07T19:20:14.020Z,1012.21
2016-07-07T19:21:14.009Z,1012.21
2016-07-07T19:22:14.006Z,1012.23
2016-07-07T19:23:13.996Z,1012.23
2016-07-07T19:24:13.982Z,1012.27
2016-07-07T19:25:13.977Z,1012.25
2016-07-07T19:26:13.962Z,1012.24
2016-07-07T19:27:13.967Z,1012.23
2016-07-07T19:28:13.949Z,1012.26
2016-07-07T19:29:13.936Z,1012.28
2016-07-07T19:30:13.926Z,1012.29
2016-07-07T19:31:13.918Z,1012.25
2016-07-07T19:32:13.909Z,1012.24
2016-07-07T19:33:13.898Z,1012.24
2016-07-07T19:34:13.897Z,1012.21
2016-07-07T19:35:13.888Z,1012.21
2016-07-07T19:36:13.866Z,1012.17
2016-07-07T19:37:13.865Z,1012.18
2016-07-07T19:38:13.851Z,1012.18
2016-07-07T19:39:13.846Z,1012.17
2016-07-07T19:40:13.833Z,1012.19
2016-07-07T19:41:13.826Z,1012.19
2016-07-07T19:42:13.811Z,1012.15
2016-07-07T19:43:13.803Z,1012.12
2016-07-07T19:44:13.798Z,1012.11
2016-07-07T19:45:13.787Z,1012.02
2016-07-07T19:46:13.778Z,1012.01
2016-07-07T19:47:13.766Z,1012.03
2016-07-07T19:48:13.753Z,1012.09
2016-07-07T19:49:13.745Z,1012.18
2016-07-07T19:50:13.736Z,1012.17
2016-07-07T19:51:13.728Z,1012.18
2016-07-07T19:52:13.718Z,1012.12
2016-07-07T19:53:13.701Z,1012.1
2016-07-07T19:54:13.696Z,1012.07
2016-07-07T19:55:13.688Z,1012.1
2016-07-07T19:56:13.676Z,1012.07
2016-07-07T19:57:13.663Z,1012.1
2016-07-07T19:58:13.654Z,1012.05
2016-07-07T19:59:13.646Z,1012.07
2016-07-07T20:00:13.636Z,1012.05
2016-07-07T20:01:13.632Z,1012.09
2016-07-07T20:02:13.615Z,1012.05
2016-07-07T20:03:13.605Z,1012.06
2016-07-07T20:04:13.595Z,1012.06
2016-07-07T20:05:13.587Z,1012.09
2016-07-07T20:06:13.577Z,1012.03
2016-07-07T20:07:13.567Z,1012.05
2016-07-07T20:08:13.556Z,1012.05
2016-07-07T20:09:13.548Z,1012.06
2016-07-07T20:10:13.541Z,1012.06
2016-07-07T20:11:13.530Z,1012.1
2016-07-07T20:12:13.524Z,1012.06
2016-07-07T20:13:13.507Z,1012.08
2016-07-07T20:14:13.507Z,1012.1
2016-07-07T20:15:13.487Z,1012.14
2016-07-07T20:16:13.484Z,1012.16
2016-07-07T20:17:13.469Z,1012.16
2016-07-07T20:18:13.468Z,1012.11
2016-07-07T20:19:13.452Z,1012.09
2016-07-07T20:20:13.440Z,1012.08
2016-07-07T20:21:13.431Z,1012.08
2016-07-07T20:22:13.417Z,1012.07
2016-07-07T20:23:13.408Z,1012.02
2016-07-07T20:24:13.399Z,1012.1
2016-07-07T20:25:13.392Z,1012.09
2016-07-07T20:26:13.376Z,1012.06
2016-07-07T20:27:13.367Z,1012.08
2016-07-07T20:28:13.355Z,1012.11
2016-07-07T20:29:13.346Z,1012.06
2016-07-07T20:30:13.339Z,1012.09
2016-07-07T20:31:13.329Z,1012.07
2016-07-07T20:32:13.322Z,1012.04
2016-07-07T20:33:13.307Z,1012.01
2016-07-07T20:34:13.297Z,1012
2016-07-07T20:35:13.288Z,1012.02
2016-07-07T20:36:13.276Z,1012.05
2016-07-07T20:37:13.268Z,1012.05
2016-07-07T20:38:13.257Z,1012.02
2016-07-07T20:39:13.246Z,1012
2016-07-07T20:40:13.238Z,1012.03
2016-07-07T20:41:13.227Z,1012.02
2016-07-07T20:42:13.218Z,1012
2016-07-07T20:43:13.218Z,1012.03
2016-07-07T20:44:13.199Z,1012.05
2016-07-07T20:45:13.187Z,1012.03
2016-07-07T20:46:13.174Z,1012.04
2016-07-07T20:47:13.166Z,1012.07
2016-07-07T20:48:13.155Z,1012.06
2016-07-07T20:49:13.142Z,1012.09
2016-07-07T20:50:13.137Z,1012.05
2016-07-07T20:51:13.123Z,1012.04
2016-07-07T20:52:13.110Z,1012.06
2016-07-07T20:53:13.102Z,1012.02
2016-07-07T20:54:13.094Z,1012.01
2016-07-07T20:55:13.081Z,1011.97
2016-07-07T20:56:13.072Z,1011.91
2016-07-07T20:57:13.068Z,1011.96
2016-07-07T20:58:13.059Z,1011.94
2016-07-07T20:59:13.043Z,1011.96
2016-07-07T21:00:13.036Z,1011.98
2016-07-07T21:01:13.016Z,1011.96
2016-07-07T21:02:13.012Z,1011.97
2016-07-07T21:03:12.996Z,1011.95
2016-07-07T21:04:12.985Z,1011.99
2016-07-07T21:05:12.978Z,1011.99
2016-07-07T21:06:12.967Z,1011.98
2016-07-07T21:07:12.957Z,1011.94
2016-07-07T21:08:12.946Z,1011.93
2016-07-07T21:09:12.938Z,1011.91
2016-07-07T21:10:12.927Z,1011.89
2016-07-07T21:11:12.917Z,1011.9
2016-07-07T21:12:12.906Z,1011.9
2016-07-07T21:13:12.895Z,1011.92
2016-07-07T21:14:12.885Z,1011.89
2016-07-07T21:15:12.875Z,1011.9
2016-07-07T21:16:12.861Z,1011.89
2016-07-07T21:17:12.852Z,1011.9
2016-07-07T21:18:12.851Z,1011.88
2016-07-07T21:19:12.829Z,1011.87
2016-07-07T21:20:12.828Z,1011.86
2016-07-07T21:21:12.810Z,1011.84
2016-07-07T21:22:12.799Z,1011.83
2016-07-07T21:23:12.797Z,1011.81
2016-07-07T21:24:12.787Z,1011.81
2016-07-07T21:25:12.796Z,1011.86
2016-07-07T21:26:12.757Z,1011.86
2016-07-07T21:27:12.747Z,1011.83
2016-07-07T21:28:12.733Z,1011.83
2016-07-07T21:29:12.779Z,1011.8
2016-07-07T21:30:12.713Z,1011.75
2016-07-07T21:31:12.709Z,1011.78
2016-07-07T21:32:12.691Z,1011.78
2016-07-07T21:33:12.689Z,1011.78
2016-07-07T21:34:12.678Z,1011.81
2016-07-07T21:35:12.657Z,1011.82
2016-07-07T21:36:12.646Z,1011.77
2016-07-07T21:37:12.641Z,1011.76
2016-07-07T21:38:12.630Z,1011.77
2016-07-07T21:39:12.612Z,1011.75
2016-07-07T21:40:12.606Z,1011.77
2016-07-07T21:41:12.595Z,1011.81
2016-07-07T21:42:12.584Z,1011.8
2016-07-07T21:43:12.577Z,1011.79
2016-07-07T21:44:12.568Z,1011.77
2016-07-07T21:45:12.553Z,1011.77
2016-07-07T21:46:12.542Z,1011.76
2016-07-07T21:47:12.527Z,1011.8
2016-07-07T21:48:12.519Z,1011.75
2016-07-07T21:49:12.512Z,1011.71
2016-07-07T21:50:12.497Z,1011.71
2016-07-07T21:51:12.485Z,1011.75
2016-07-07T21:52:12.482Z,1011.77
2016-07-07T21:53:12.470Z,1011.81
2016-07-07T21:54:12.457Z,1011.81
2016-07-07T21:55:12.443Z,1011.8
2016-07-07T21:56:12.434Z,1011.76
2016-07-07T21:57:12.421Z,1011.77
2016-07-07T21:58:12.415Z,1011.77
2016-07-07T21:59:12.399Z,1011.75
2016-07-07T22:00:12.390Z,1011.79
2016-07-07T22:01:12.389Z,1011.74
2016-07-07T22:02:12.363Z,1011.75
2016-07-07T22:03:12.358Z,1011.71
2016-07-07T22:04:12.350Z,1011.8
2016-07-07T22:05:12.328Z,1011.81
2016-07-07T22:06:12.322Z,1011.78
2016-07-07T22:07:12.309Z,1011.82
2016-07-07T22:08:12.300Z,1011.83
2016-07-07T22:09:12.289Z,1011.8
2016-07-07T22:10:12.278Z,1011.78
2016-07-07T22:11:12.273Z,1011.77
2016-07-07T22:12:12.261Z,1011.76
2016-07-07T22:13:12.255Z,1011.74
2016-07-07T22:14:12.238Z,1011.73
2016-07-07T22:15:12.221Z,1011.75
2016-07-07T22:16:12.217Z,1011.75
2016-07-07T22:17:12.201Z,1011.77
2016-07-07T22:18:12.189Z,1011.78
2016-07-07T22:19:12.179Z,1011.73
2016-07-07T22:20:12.171Z,1011.75
2016-07-07T22:21:12.162Z,1011.76
2016-07-07T22:22:12.147Z,1011.74
2016-07-07T22:23:12.127Z,1011.7
2016-07-07T22:24:12.120Z,1011.76
2016-07-07T22:25:12.112Z,1011.73
2016-07-07T22:26:12.148Z,1011.75
2016-07-07T22:27:12.088Z,1011.71
2016-07-07T22:28:12.125Z,1011.65
2016-07-07T22:29:12.065Z,1011.66
2016-07-07T22:30:12.051Z,1011.68
2016-07-07T22:31:12.042Z,1011.66
2016-07-07T22:32:12.038Z,1011.65
2016-07-07T22:33:12.017Z,1011.64
2016-07-07T22:34:12.006Z,1011.66
2016-07-07T22:35:12.000Z,1011.68
2016-07-07T22:36:11.992Z,1011.66
2016-07-07T22:37:11.980Z,1011.68
2016-07-07T22:38:11.966Z,1011.64
2016-07-07T22:39:11.952Z,1011.65
2016-07-07T22:40:11.937Z,1011.65
2016-07-07T22:41:11.927Z,1011.61
2016-07-07T22:42:11.920Z,1011.63
2016-07-07T22:43:11.908Z,1011.61
2016-07-07T22:44:11.895Z,1011.63
2016-07-07T22:45:11.881Z,1011.64
2016-07-07T22:46:11.879Z,1011.62
2016-07-07T22:47:11.865Z,1011.59
2016-07-07T22:48:11.851Z,1011.59
2016-07-07T22:49:11.837Z,1011.53
2016-07-07T22:50:11.831Z,1011.55
2016-07-07T22:51:11.815Z,1011.57
2016-07-07T22:52:11.804Z,1011.55
2016-07-07T22:53:11.799Z,1011.52
2016-07-07T22:54:11.786Z,1011.54
2016-07-07T22:55:11.771Z,1011.5
2016-07-07T22:56:11.757Z,1011.49
2016-07-07T22:57:11.750Z,1011.49
2016-07-07T22:58:11.737Z,1011.48
2016-07-07T22:59:11.731Z,1011.46
2016-07-07T23:00:11.709Z,1011.48
2016-07-07T23:01:11.700Z,1011.44
2016-07-07T23:02:11.688Z,1011.46
2016-07-07T23:03:11.674Z,1011.44
2016-07-07T23:04:11.671Z,1011.46
2016-07-07T23:05:11.651Z,1011.45
2016-07-07T23:06:11.642Z,1011.44
2016-07-07T23:07:11.627Z,1011.42
2016-07-07T23:08:11.618Z,1011.41
2016-07-07T23:09:11.608Z,1011.38
2016-07-07T23:10:11.598Z,1011.4
2016-07-07T23:11:11.601Z,1011.41
2016-07-07T23:12:11.580Z,1011.4
2016-07-07T23:13:11.567Z,1011.4
2016-07-07T23:14:11.547Z,1011.34
2016-07-07T23:15:11.537Z,1011.32
2016-07-07T23:16:11.529Z,1011.32
2016-07-07T23:17:11.512Z,1011.34
2016-07-07T23:18:11.509Z,1011.25
2016-07-07T23:19:11.489Z,1011.26
2016-07-07T23:20:11.481Z,1011.25
2016-07-07T23:21:11.469Z,1011.25
2016-07-07T23:22:11.457Z,1011.26
2016-07-07T23:23:11.448Z,1011.21
2016-07-07T23:24:11.437Z,1011.24
2016-07-07T23:25:11.419Z,1011.27
2016-07-07T23:26:11.409Z,1011.27
2016-07-07T23:27:11.399Z,1011.28
2016-07-07T23:28:11.382Z,1011.3
2016-07-07T23:29:11.372Z,1011.28
2016-07-07T23:30:11.361Z,1011.26
2016-07-07T23:31:11.349Z,1011.26
2016-07-07T23:32:11.341Z,1011.22
2016-07-07T23:33:11.327Z,1011.21
2016-07-07T23:34:11.319Z,1011.21
2016-07-07T23:35:11.307Z,1011.22
2016-07-07T23:36:11.295Z,1011.23
2016-07-07T23:37:11.277Z,1011.16
2016-07-07T23:38:11.267Z,1011.14
2016-07-07T23:39:11.258Z,1011.14
2016-07-07T23:40:11.255Z,1011.08
2016-07-07T23:41:11.228Z,1011.06
2016-07-07T23:42:11.221Z,1011.05
2016-07-07T23:43:11.207Z,1011.09
2016-07-07T23:44:11.201Z,1011.04
2016-07-07T23:45:11.184Z,1011.08
2016-07-07T23:46:11.172Z,1011.1
2016-07-07T23:47:11.157Z,1011.13
2016-07-07T23:48:11.147Z,1011.12
2016-07-07T23:49:11.139Z,1011.12
2016-07-07T23:50:11.116Z,1011.14
2016-07-07T23:51:11.110Z,1011.13
2016-07-07T23:52:11.101Z,1011.13
2016-07-07T23:53:11.091Z,1011.09
2016-07-07T23:54:11.080Z,1011.08
2016-07-07T23:55:11.070Z,1011.03
2016-07-07T23:56:11.050Z,1011
2016-07-07T23:57:11.038Z,1010.98
2016-07-07T23:58:11.023Z,1010.96
2016-07-07T23:59:11.011Z,1010.94
